Time;durP1;ratioP1;P1;durP2;ratioP2;P2;SDS_P1;SDS_P2;PMS_P1;PMS_P2;Temp;Humidity;BMP_temperature;BMP_pressure;BME280_temperature;BME280_humidity;BME280_pressure;Samples;Min_cycle;Max_cycle;Signal;HPM_P1;HPM_P2
2023/10/01 00:01:17;;;;;;;10.90;7.03;;;;;;;-141.97;44.90;47323.03;4972841;28;20219;-84
2023/10/01 00:03:43;;;;;;;11.20;7.33;;;;;;;-141.97;44.71;47353.78;4972810;28;20639;-82
2023/10/01 00:06:08;;;;;;;14.30;8.33;;;;;;;-141.97;44.80;47265.38;4971567;28;20160;-83
2023/10/01 00:08:34;;;;;;;13.93;7.37;;;;;;;-141.97;44.57;47597.88;4973149;28;20255;-82
2023/10/01 00:11:00;;;;;;;10.57;7.60;;;;;;;-141.97;44.64;47311.50;4971642;28;20175;-82
2023/10/01 00:13:26;;;;;;;15.83;7.40;;;;;;;-141.97;45.11;47557.53;4971672;28;20172;-82
2023/10/01 00:15:52;;;;;;;11.43;6.93;;;;;;;-141.97;45.12;47373.00;4972428;28;20284;-83
2023/10/01 00:18:17;;;;;;;12.13;7.03;;;;;;;-141.97;45.43;47572.91;4971342;28;20175;-82
2023/10/01 00:20:43;;;;;;;15.43;6.93;;;;;;;-141.97;45.24;47467.19;4971315;28;20171;-83
2023/10/01 00:23:09;;;;;;;13.03;7.07;;;;;;;-141.97;45.23;47538.28;4971625;28;20183;-83
2023/10/01 00:25:38;;;;;;;11.23;7.10;;;;;;;-141.97;44.81;47588.28;4971021;28;20172;-83
2023/10/01 00:28:05;;;;;;;12.53;7.23;;;;;;;-141.97;44.51;47611.34;4970733;28;20311;-83
2023/10/01 00:30:31;;;;;;;16.03;7.30;;;;;;;-141.97;44.31;47422.97;4972543;28;20839;-83
2023/10/01 00:32:56;;;;;;;12.83;7.23;;;;;;;-141.97;44.63;47438.34;4972721;28;20730;-83
2023/10/01 00:35:22;;;;;;;14.17;7.13;;;;;;;-141.97;44.68;47365.31;4970924;28;20565;-83
2023/10/01 00:37:47;;;;;;;12.77;7.23;;;;;;;-141.97;44.34;47278.84;4971610;28;20640;-84
2023/10/01 00:40:14;;;;;;;10.97;7.00;;;;;;;-141.97;44.30;47565.22;4970920;28;20168;-84
2023/10/01 00:42:39;;;;;;;11.77;7.50;;;;;;;-141.97;44.25;47338.41;4973114;28;20172;-83
2023/10/01 00:45:08;;;;;;;12.03;7.37;;;;;;;-141.97;43.81;47424.91;4974472;28;20258;-83
2023/10/01 00:47:35;;;;;;;12.40;7.07;;;;;;;-141.97;43.58;47376.84;4972403;28;20196;-83
2023/10/01 00:50:01;;;;;;;10.20;6.80;;;;;;;-141.97;43.54;47430.66;4972201;28;20164;-83
2023/10/01 00:52:30;;;;;;;12.73;7.00;;;;;;;-141.97;43.21;47407.59;4971020;28;20160;-82
2023/10/01 00:54:55;;;;;;;10.97;7.03;;;;;;;-141.97;43.26;47480.63;4971210;28;20203;-83
2023/10/01 00:57:21;;;;;;;12.73;6.93;;;;;;;-141.97;43.15;47574.81;4974829;28;20211;-83
2023/10/01 00:59:48;;;;;;;9.67;6.27;;;;;;;-141.97;43.14;47192.34;4976270;28;20551;-84
2023/10/01 01:02:15;;;;;;;11.10;6.90;;;;;;;-141.97;42.75;47463.34;4974858;28;20207;-83
2023/10/01 01:04:45;;;;;;;9.07;6.70;;;;;;;-141.97;42.62;47538.28;4976006;28;20164;-83
2023/10/01 01:07:20;;;;;;;9.70;7.00;;;;;;;-141.97;42.83;47396.06;4991038;28;20250;-83
2023/10/01 01:09:51;;;;;;;10.90;6.70;;;;;;;-141.97;42.76;47369.16;4975695;28;20163;-85
2023/10/01 01:12:17;;;;;;;14.90;7.10;;;;;;;-141.97;42.60;47355.72;4976869;28;20160;-83
2023/10/01 01:14:44;;;;;;;11.70;6.60;;;;;;;-141.97;42.81;47586.34;4977074;28;20558;-83
2023/10/01 01:17:13;;;;;;;15.93;6.93;;;;;;;-141.97;43.08;47422.97;4977957;28;20264;-84
2023/10/01 01:19:41;;;;;;;10.77;6.83;;;;;;;-141.97;43.02;47415.28;4976670;28;20530;-83
2023/10/01 01:22:09;;;;;;;13.73;7.07;;;;;;;-141.97;42.97;47640.16;4990408;28;20171;-81
2023/10/01 01:24:36;;;;;;;10.57;6.93;;;;;;;-141.97;43.07;47288.44;4994958;28;20197;-82
2023/10/01 01:27:05;;;;;;;13.03;6.90;;;;;;;-141.97;42.98;47430.66;4989996;28;20153;-83
2023/10/01 01:29:40;;;;;;;11.87;7.00;;;;;;;-141.97;42.98;47430.66;4976047;28;20216;-83
2023/10/01 01:32:13;;;;;;;13.03;7.70;;;;;;;-141.97;42.97;47592.13;4975626;28;20156;-83
2023/10/01 01:34:40;;;;;;;12.97;6.80;;;;;;;-141.97;42.98;47250.00;4975897;28;20195;-83
2023/10/01 01:37:06;;;;;;;10.87;6.67;;;;;;;-141.97;42.96;47353.78;4974404;28;20287;-83
2023/10/01 01:39:42;;;;;;;10.20;6.43;;;;;;;-141.97;42.53;47428.75;4974715;28;20633;-83
2023/10/01 01:42:08;;;;;;;13.83;7.10;;;;;;;-141.97;42.66;47253.84;4976797;28;20172;-84
2023/10/01 01:44:33;;;;;;;13.57;7.13;;;;;;;-141.97;42.50;47298.06;4980661;28;20161;-83
2023/10/01 01:47:02;;;;;;;12.00;6.87;;;;;;;-141.97;42.60;47180.81;4979983;28;20175;-82
2023/10/01 01:49:27;;;;;;;10.00;6.60;;;;;;;-141.97;42.47;47447.97;4977024;28;20695;-84
2023/10/01 01:51:59;;;;;;;10.50;6.70;;;;;;;-141.97;42.27;47276.91;4975867;28;20577;-83
2023/10/01 01:54:27;;;;;;;12.27;7.03;;;;;;;-141.97;42.48;47346.09;4975187;28;20160;-83
2023/10/01 01:56:55;;;;;;;13.93;7.30;;;;;;;-141.97;42.53;47315.34;4974906;28;20196;-83
2023/10/01 01:59:21;;;;;;;10.77;7.00;;;;;;;-141.97;42.42;47557.53;4974959;28;20617;-84
2023/10/01 02:01:47;;;;;;;14.90;6.80;;;;;;;-141.97;42.76;47415.28;4975240;28;20165;-83
2023/10/01 02:04:12;;;;;;;9.40;6.80;;;;;;;-141.97;42.63;47321.13;4974936;28;20594;-83
2023/10/01 02:06:38;;;;;;;12.03;7.17;;;;;;;-141.97;42.87;47446.03;4972932;28;20172;-83
2023/10/01 02:09:12;;;;;;;10.23;6.53;;;;;;;-141.97;42.53;47296.13;4975267;28;20168;-84
2023/10/01 02:11:38;;;;;;;11.37;6.93;;;;;;;-141.97;42.46;47432.59;4973577;28;20184;-83
2023/10/01 02:14:05;;;;;;;14.93;7.00;;;;;;;-141.97;42.53;47592.13;4991073;28;20175;-82
2023/10/01 02:22:05;;;;;;;14.13;7.20;;;;;;;-141.97;43.02;47522.91;4934848;29;20221;-84
2023/10/01 02:27:11;;;;;;;14.97;7.00;;;;;;;-141.97;43.06;47538.28;4950722;29;20169;-83
2023/10/01 02:29:45;;;;;;;15.47;7.27;;;;;;;-141.97;43.13;47294.22;4943194;29;20235;-83
2023/10/01 02:32:14;;;;;;;13.40;7.20;;;;;;;-141.97;43.15;47415.28;4917888;29;20197;-83
2023/10/01 02:34:40;;;;;;;11.17;7.30;;;;;;;-141.97;43.06;47438.34;4933688;29;20173;-83
2023/10/01 02:37:07;;;;;;;10.17;6.83;;;;;;;-141.97;43.51;47376.84;4917917;29;20280;-83
2023/10/01 02:39:33;;;;;;;12.73;7.13;;;;;;;-141.97;43.40;47398.00;4933801;29;20690;-83
2023/10/01 02:44:40;;;;;;;11.33;7.13;;;;;;;-141.97;43.72;47422.97;4934256;29;20197;-84
2023/10/01 02:47:16;;;;;;;10.87;6.80;;;;;;;-141.97;43.87;47447.97;4918329;29;20245;-84
2023/10/01 02:50:15;;;;;;;12.50;6.70;;;;;;;-141.97;43.86;47415.28;4935570;29;20260;-83
2023/10/01 02:52:37;;;;;;;13.00;7.97;;;;;;;-141.97;43.92;47461.41;4936937;29;20619;-83
2023/10/01 02:55:17;;;;;;;12.10;6.80;;;;;;;-141.97;43.95;47301.91;4934512;29;20173;-84
2023/10/01 02:57:42;;;;;;;11.00;7.10;;;;;;;-141.97;43.84;47367.25;4963416;28;20266;-83
2023/10/01 03:02:43;;;;;;;12.07;6.50;;;;;;;-141.97;43.64;47328.81;4974716;28;20610;-84
2023/10/01 03:05:19;;;;;;;12.67;7.00;;;;;;;-141.97;43.64;47432.59;4974576;28;20179;-84
2023/10/01 03:07:50;;;;;;;8.87;6.63;;;;;;;-141.97;43.68;47457.56;4974675;28;20210;-83
2023/10/01 03:10:26;;;;;;;11.47;6.90;;;;;;;-141.97;43.65;47319.19;4973839;28;20636;-84
2023/10/01 03:12:53;;;;;;;13.07;6.67;;;;;;;-141.97;43.52;47572.91;4974172;28;20506;-85
2023/10/01 03:15:29;;;;;;;10.90;6.80;;;;;;;-141.97;43.47;47457.56;4988610;28;20191;-83
2023/10/01 03:17:57;;;;;;;10.83;7.13;;;;;;;-141.97;43.38;47424.91;4973825;28;20180;-83
2023/10/01 03:23:33;;;;;;;11.80;6.83;;;;;;;-141.97;43.29;47303.81;4974051;28;20168;-83
2023/10/01 03:26:05;;;;;;;10.33;6.80;;;;;;;-141.97;43.75;47428.75;4988419;28;20338;-84
2023/10/01 03:31:22;;;;;;;10.07;6.77;;;;;;;-141.97;43.55;47630.56;4973960;28;20222;-83
2023/10/01 03:33:53;;;;;;;11.30;7.47;;;;;;;-141.97;43.32;47446.03;4973492;28;20175;-82
2023/10/01 03:36:28;;;;;;;12.40;7.33;;;;;;;-141.97;43.20;47422.97;4971807;28;20196;-85
2023/10/01 03:39:25;;;;;;;9.73;6.43;;;;;;;-141.97;43.29;47436.44;4988620;28;20163;-83
2023/10/01 03:42:10;;;;;;;11.60;6.70;;;;;;;-141.97;43.24;47578.66;4973292;28;20633;-82
2023/10/01 03:47:21;;;;;;;13.30;6.97;;;;;;;-141.97;43.33;47361.47;4986503;28;20195;-83
2023/10/01 03:49:46;;;;;;;10.80;7.13;;;;;;;-141.97;43.25;47419.13;4974028;28;20247;-83
2023/10/01 03:52:14;;;;;;;10.70;7.10;;;;;;;-141.97;43.34;47284.59;4991115;28;20175;-83
2023/10/01 03:54:54;;;;;;;10.00;6.73;;;;;;;-141.97;43.24;47417.22;4978202;28;20172;-83
2023/10/01 03:57:19;;;;;;;9.07;6.70;;;;;;;-141.97;43.35;47605.56;4986713;28;20199;-83
2023/10/01 03:59:53;;;;;;;10.13;6.50;;;;;;;-141.97;43.26;47538.28;4988925;28;20157;-83
2023/10/01 04:05:21;;;;;;;9.07;6.93;;;;;;;-141.97;43.26;47403.75;4973733;28;20171;-84
2023/10/01 04:07:47;;;;;;;9.10;6.70;;;;;;;-141.97;43.35;47497.94;4987772;28;20175;-84
2023/10/01 04:10:14;;;;;;;12.17;6.90;;;;;;;-141.97;43.55;47432.59;4987384;28;20258;-84
2023/10/01 04:12:50;;;;;;;9.87;7.00;;;;;;;-141.97;43.96;47426.81;4972770;28;20596;-85
2023/10/01 04:15:29;;;;;;;12.87;7.03;;;;;;;-141.97;43.96;47597.88;4971490;28;20171;-83
2023/10/01 04:23:33;;;;;;;14.40;6.60;;;;;;;-141.97;43.99;47403.75;4951359;29;20216;-83
2023/10/01 04:26:06;;;;;;;11.27;7.10;;;;;;;-141.97;44.08;47446.03;4951609;29;20185;-84
2023/10/01 04:28:36;;;;;;;8.80;6.90;;;;;;;-141.97;43.99;47369.16;4951100;29;20316;-83
2023/10/01 04:31:14;;;;;;;10.53;7.17;;;;;;;-141.97;43.92;47332.66;4934857;29;20169;-83
2023/10/01 04:33:47;;;;;;;10.33;6.80;;;;;;;-141.97;43.73;47317.28;4935052;28;20164;-84
2023/10/01 04:36:16;;;;;;;9.80;6.63;;;;;;;-141.97;43.57;47376.84;4935143;29;20715;-83
2023/10/01 04:38:51;;;;;;;12.70;7.07;;;;;;;-141.97;43.67;47620.94;4951031;29;20192;-83
2023/10/01 04:41:18;;;;;;;12.90;7.20;;;;;;;-141.97;43.38;47469.09;4952174;29;20259;-84
2023/10/01 04:44:06;;;;;;;10.13;6.93;;;;;;;-141.97;43.37;47628.63;4935231;29;20323;-83
2023/10/01 04:46:37;;;;;;;12.30;7.17;;;;;;;-141.97;43.25;47317.28;4936000;29;20283;-84
2023/10/01 04:49:08;;;;;;;11.17;7.00;;;;;;;-141.97;43.44;47463.34;4951810;29;20172;-83
2023/10/01 04:51:45;;;;;;;10.97;6.90;;;;;;;-141.97;43.35;47584.44;4951268;29;20177;-82
2023/10/01 04:54:17;;;;;;;10.13;6.97;;;;;;;-141.97;43.47;47453.72;4951133;29;20687;-84
2023/10/01 04:56:48;;;;;;;9.50;7.20;;;;;;;-141.97;43.26;47644.00;4950781;29;20189;-82
2023/10/01 04:59:15;;;;;;;12.40;6.87;;;;;;;-141.97;43.23;47584.44;4950891;29;20261;-84
2023/10/01 05:01:41;;;;;;;10.80;7.23;;;;;;;-141.97;43.13;47603.66;4953585;29;20276;-83
2023/10/01 05:04:11;;;;;;;10.07;6.77;;;;;;;-141.97;43.14;47569.06;4958196;28;20176;-83
2023/10/01 05:06:37;;;;;;;10.87;7.13;;;;;;;-141.97;43.13;47384.53;4958004;28;20267;-83
2023/10/01 05:09:07;;;;;;;11.33;7.10;;;;;;;-141.97;42.85;47292.28;4953440;29;20625;-83
2023/10/01 05:11:33;;;;;;;11.97;7.50;;;;;;;-141.97;42.87;47311.50;4952925;28;20153;-83
2023/10/01 05:13:58;;;;;;;16.80;7.73;;;;;;;-141.97;42.70;47323.03;4968015;28;20176;-83
2023/10/01 05:16:27;;;;;;;11.93;7.03;;;;;;;-141.97;42.27;47430.66;4952755;28;20189;-84
2023/10/01 05:19:09;;;;;;;10.87;6.80;;;;;;;-141.97;42.34;47442.19;4952325;28;20165;-84
2023/10/01 05:21:50;;;;;;;9.13;7.07;;;;;;;-141.97;42.28;47619.03;4952034;28;20173;-83
2023/10/01 05:24:36;;;;;;;10.37;7.13;;;;;;;-141.97;41.96;47422.97;4952148;29;20678;-84
2023/10/01 05:27:09;;;;;;;11.17;7.23;;;;;;;-141.97;41.76;47615.19;4951640;28;20614;-84
2023/10/01 05:29:42;;;;;;;15.67;7.33;;;;;;;-141.97;41.38;47540.22;4970747;28;20247;-83
2023/10/01 05:32:10;;;;;;;12.70;7.23;;;;;;;-141.97;41.03;47440.28;4971621;28;20246;-83
2023/10/01 05:34:38;;;;;;;12.00;7.20;;;;;;;-141.97;41.06;47426.81;4971631;28;20180;-84
2023/10/01 05:37:12;;;;;;;10.10;6.80;;;;;;;-141.97;41.01;47417.22;4971810;28;20188;-83
2023/10/01 05:39:59;;;;;;;10.50;6.30;;;;;;;-141.97;41.07;47461.41;4986862;28;20271;-84
2023/10/01 05:42:34;;;;;;;9.80;7.00;;;;;;;-141.97;40.98;47407.59;4972161;28;20188;-83
2023/10/01 05:44:59;;;;;;;10.70;6.80;;;;;;;-141.97;40.95;47461.41;4974405;28;20172;-83
2023/10/01 05:47:41;;;;;;;9.83;6.57;;;;;;;-141.97;41.10;47440.28;4975181;28;20163;-83
2023/10/01 05:50:12;;;;;;;9.47;6.43;;;;;;;-141.97;41.05;47263.47;4974187;28;20545;-84
2023/10/01 05:52:40;;;;;;;9.77;6.93;;;;;;;-141.97;41.21;47405.69;4975513;28;20170;-83
2023/10/01 05:55:12;;;;;;;12.60;6.73;;;;;;;-141.97;41.22;47415.28;4974167;28;20180;-84
2023/10/01 05:57:38;;;;;;;10.80;7.47;;;;;;;-141.97;41.45;47576.75;4974957;28;20279;-84
2023/10/01 06:00:07;;;;;;;13.20;7.27;;;;;;;-141.97;41.42;47353.78;4982866;28;20168;-83
2023/10/01 06:02:47;;;;;;;11.00;7.40;;;;;;;-141.97;41.56;47465.25;4989713;28;20167;-82
2023/10/01 06:05:33;;;;;;;13.83;7.10;;;;;;;-141.97;41.40;47413.38;4988427;28;20160;-83
2023/10/01 06:08:12;;;;;;;9.77;7.00;;;;;;;-141.97;41.58;47430.66;4995567;28;20156;-81
2023/10/01 06:10:59;;;;;;;13.00;7.43;;;;;;;-141.97;41.66;47380.69;4993154;28;20166;-84
2023/10/01 06:13:28;;;;;;;11.90;7.20;;;;;;;-141.97;41.53;47465.25;4975512;28;20637;-83
2023/10/01 06:15:58;;;;;;;13.97;7.60;;;;;;;-141.97;41.79;47461.41;4976200;28;20184;-84
2023/10/01 06:18:24;;;;;;;12.83;7.80;;;;;;;-141.97;42.05;47357.63;4976192;28;20175;-83
2023/10/01 06:20:50;;;;;;;11.23;7.50;;;;;;;-141.97;42.02;47292.28;4974986;28;20187;-83
2023/10/01 06:23:16;;;;;;;11.57;7.37;;;;;;;-141.97;42.17;47307.66;4976027;28;20191;-85
2023/10/01 06:25:43;;;;;;;12.47;7.47;;;;;;;-141.97;41.81;47342.25;4973535;28;20161;-84
2023/10/01 06:28:09;;;;;;;13.97;7.47;;;;;;;-141.97;42.10;47324.97;4974442;28;20778;-83
2023/10/01 06:30:43;;;;;;;14.20;7.57;;;;;;;-141.97;42.41;47538.28;4973373;28;20175;-83
2023/10/01 06:33:24;;;;;;;11.07;7.90;;;;;;;-141.97;44.93;47261.53;4973451;28;20195;-84
2023/10/01 06:36:15;;;;;;;16.13;8.00;;;;;;;-141.97;45.97;47309.59;4974186;28;20248;-83
2023/10/01 06:38:36;;;;;;;14.17;7.80;;;;;;;-141.97;46.22;47369.16;4974385;28;20913;-83
2023/10/01 06:41:04;;;;;;;17.53;8.10;;;;;;;-141.97;46.15;47346.09;4974193;28;20176;-83
2023/10/01 06:43:32;;;;;;;12.07;8.37;;;;;;;-141.97;46.10;47392.22;4974578;28;20617;-82
2023/10/01 06:45:59;;;;;;;14.73;8.57;;;;;;;-141.97;44.82;47620.94;4974546;28;20172;-83
2023/10/01 06:48:27;;;;;;;16.90;7.67;;;;;;;-141.97;44.54;47488.31;4975030;28;20156;-81
2023/10/01 06:50:53;;;;;;;11.63;7.67;;;;;;;-141.97;44.36;47399.91;4975838;28;20497;-84
2023/10/01 06:53:20;;;;;;;14.40;7.30;;;;;;;-141.97;43.84;47244.25;4976576;28;20255;-84
2023/10/01 06:55:47;;;;;;;12.07;7.83;;;;;;;-141.97;43.34;47426.81;4974612;28;20176;-83
2023/10/01 06:58:13;;;;;;;12.60;7.40;;;;;;;-141.97;43.06;47307.66;4973804;28;20192;-82
2023/10/01 07:00:41;;;;;;;13.30;7.37;;;;;;;-141.97;42.86;47453.72;4973856;28;20192;-84
2023/10/01 07:03:21;;;;;;;15.23;7.77;;;;;;;-141.97;42.65;47453.72;4973861;28;20230;-84
2023/10/01 07:05:51;;;;;;;13.57;7.73;;;;;;;-141.97;42.45;47482.56;4974184;28;20586;-84
2023/10/01 07:08:18;;;;;;;11.13;7.87;;;;;;;-141.97;42.46;47465.25;4975155;28;20160;-83
2023/10/01 07:10:46;;;;;;;13.13;7.70;;;;;;;-141.97;41.93;47422.97;4974243;28;20172;-83
2023/10/01 07:13:15;;;;;;;12.00;7.63;;;;;;;-141.97;41.81;47336.50;4975153;28;20169;-83
2023/10/01 07:15:43;;;;;;;11.43;7.47;;;;;;;-141.97;42.02;47438.34;4975858;28;20164;-83
2023/10/01 07:18:19;;;;;;;12.03;7.70;;;;;;;-141.97;41.84;47636.31;4974298;28;20205;-83
2023/10/01 07:20:49;;;;;;;11.77;7.93;;;;;;;-141.97;41.65;47438.34;4974061;28;20266;-83
2023/10/01 07:23:14;;;;;;;11.67;7.43;;;;;;;-141.97;41.56;47369.16;4974214;28;20643;-85
2023/10/01 07:25:43;;;;;;;11.50;7.50;;;;;;;-141.97;42.04;47311.50;4973724;28;20168;-82
2023/10/01 07:28:18;;;;;;;14.07;8.10;;;;;;;-141.97;41.98;47422.97;4973945;28;20286;-84
2023/10/01 07:30:51;;;;;;;16.60;7.70;;;;;;;-141.97;42.04;47376.84;4973691;28;20164;-82
2023/10/01 07:33:17;;;;;;;13.63;7.30;;;;;;;-141.97;42.07;47369.16;4974250;28;20163;-83
2023/10/01 07:35:45;;;;;;;11.17;7.57;;;;;;;-141.97;42.28;47409.53;4976141;28;20204;-84
2023/10/01 07:38:14;;;;;;;10.90;7.77;;;;;;;-141.97;42.17;47421.06;4973713;28;20243;-83
2023/10/01 07:40:57;;;;;;;12.03;8.00;;;;;;;-141.97;41.99;47299.97;4974313;28;20164;-84
2023/10/01 07:43:26;;;;;;;11.87;7.97;;;;;;;-141.97;42.01;47461.41;4975478;28;20200;-83
2023/10/01 07:45:59;;;;;;;14.03;7.70;;;;;;;-141.97;42.03;47457.56;4985355;28;20179;-84
2023/10/01 07:48:33;;;;;;;14.50;8.40;;;;;;;-141.97;42.14;47384.53;4978127;28;20184;-83
2023/10/01 07:51:02;;;;;;;13.27;7.63;;;;;;;-141.97;42.12;47569.06;4972955;28;20219;-84
2023/10/01 07:53:32;;;;;;;12.57;7.77;;;;;;;-141.97;42.12;47401.84;4972698;28;20251;-84
2023/10/01 07:56:07;;;;;;;15.33;8.30;;;;;;;-141.97;41.81;47301.91;4972777;28;20290;-84
2023/10/01 07:58:46;;;;;;;13.57;7.83;;;;;;;-141.97;41.67;47446.03;4971356;28;20167;-83
2023/10/01 08:03:56;;;;;;;16.30;7.67;;;;;;;-141.97;41.85;47428.75;4973278;28;20163;-84
2023/10/01 08:06:31;;;;;;;17.80;9.00;;;;;;;-141.97;41.93;47419.13;4972991;28;20152;-83
2023/10/01 08:09:01;;;;;;;12.93;8.40;;;;;;;-141.97;41.19;47438.34;4973890;28;20422;-82
2023/10/01 08:14:11;;;;;;;12.30;7.87;;;;;;;-141.97;40.79;47382.63;4981053;28;20179;-82
2023/10/01 08:16:51;;;;;;;15.67;8.30;;;;;;;-141.97;40.83;47390.31;4978718;28;20191;-84
2023/10/01 08:19:20;;;;;;;15.47;8.40;;;;;;;-141.97;40.60;47396.06;4977595;28;20159;-82
2023/10/01 08:21:53;;;;;;;12.20;8.50;;;;;;;-141.97;40.29;47451.81;4975255;28;20632;-83
2023/10/01 08:24:33;;;;;;;14.33;8.80;;;;;;;-141.97;40.03;47415.28;4973111;28;20656;-84
2023/10/01 08:27:03;;;;;;;15.30;8.85;;;;;;;-141.97;40.31;47436.44;4972027;28;20426;-83
2023/10/01 08:32:14;;;;;;;16.33;9.03;;;;;;;-141.97;40.33;47399.91;4989468;28;20251;-82
2023/10/01 08:37:49;;;;;;;10.73;7.83;;;;;;;-141.97;40.14;47444.13;4951056;29;20196;-82
2023/10/01 08:40:17;;;;;;;10.10;7.97;;;;;;;-141.97;40.28;47413.38;4951227;29;20212;-84
2023/10/01 08:42:45;;;;;;;15.27;8.10;;;;;;;-141.97;40.32;47238.47;4950743;29;20302;-84
2023/10/01 08:45:17;;;;;;;13.90;8.47;;;;;;;-141.97;40.34;47590.19;4950681;29;20192;-85
2023/10/01 08:47:45;;;;;;;13.43;7.97;;;;;;;-141.97;39.96;47290.38;4950620;29;20168;-83
2023/10/01 08:52:56;;;;;;;13.13;7.60;;;;;;;-141.97;39.24;47422.97;4950687;29;20332;-83
2023/10/01 08:56:04;;;;;;;12.47;8.30;;;;;;;-141.97;39.45;47401.84;4934782;29;20200;-83
2023/10/01 08:58:27;;;;;;;15.00;8.30;;;;;;;-141.97;38.97;47415.28;4952166;29;20274;-84
2023/10/01 09:01:11;;;;;;;13.10;7.30;;;;;;;-141.97;39.37;47419.13;4951431;28;20197;-82
2023/10/01 09:03:38;;;;;;;10.03;7.70;;;;;;;-141.97;38.61;47315.34;4950644;29;20260;-82
2023/10/01 09:06:05;;;;;;;11.43;7.70;;;;;;;-141.97;38.29;47430.66;4950108;29;20200;-82
2023/10/01 09:08:43;;;;;;;13.23;8.10;;;;;;;-141.97;38.46;47411.44;4936675;29;20180;-82
2023/10/01 09:11:13;;;;;;;12.27;8.30;;;;;;;-141.97;38.00;47424.91;4962101;28;20591;-85
2023/10/01 09:13:46;;;;;;;16.53;9.10;;;;;;;-141.97;37.30;47334.56;4984837;28;20211;-84
2023/10/01 09:16:12;;;;;;;11.73;7.57;;;;;;;-141.97;36.69;47409.53;4977688;28;20232;-83
2023/10/01 09:19:03;;;;;;;10.33;7.63;;;;;;;-141.97;36.88;47307.66;4965621;28;20280;-82
2023/10/01 09:21:28;;;;;;;12.73;7.40;;;;;;;-141.97;36.59;47361.47;4975583;28;20175;-84
2023/10/01 09:23:58;;;;;;;11.90;8.13;;;;;;;-141.97;37.31;47471.03;4974727;28;20172;-84
2023/10/01 09:26:56;;;;;;;13.97;8.60;;;;;;;-141.97;36.97;47392.22;4975699;28;20781;-83
2023/10/01 09:29:23;;;;;;;13.90;8.10;;;;;;;-141.97;37.28;47207.72;4973855;28;21311;-84
2023/10/01 09:31:59;;;;;;;13.40;8.17;;;;;;;-141.97;37.55;47396.06;4973943;28;20206;-83
2023/10/01 09:34:34;;;;;;;12.10;7.83;;;;;;;-141.97;36.66;47346.09;4975370;28;20314;-84
2023/10/01 09:37:06;;;;;;;11.53;8.13;;;;;;;-141.97;36.49;47344.19;4973992;28;20200;-84
2023/10/01 09:39:41;;;;;;;13.17;7.93;;;;;;;-141.97;35.53;47317.28;4975636;28;20219;-84
2023/10/01 09:42:24;;;;;;;10.02;7.55;;;;;;;-141.97;35.26;47307.66;4973814;28;20180;-84
2023/10/01 09:44:54;;;;;;;11.17;8.23;;;;;;;-141.97;35.95;47246.16;4975984;28;20164;-84
2023/10/01 09:47:25;;;;;;;11.63;7.70;;;;;;;-141.97;35.89;47338.41;4981575;28;20161;-82
2023/10/01 09:49:54;;;;;;;13.07;7.87;;;;;;;-141.97;35.84;47351.88;4994914;28;20175;-82
2023/10/01 09:52:29;;;;;;;12.17;7.97;;;;;;;-141.97;35.69;47515.22;4977669;28;20226;-85
2023/10/01 09:55:29;;;;;;;10.77;7.70;;;;;;;-141.97;35.78;47521.00;4975585;28;20160;-84
2023/10/01 09:57:56;;;;;;;11.43;7.97;;;;;;;-141.97;35.30;47394.16;4956234;28;20212;-84
2023/10/01 10:00:39;;;;;;;11.30;8.10;;;;;;;-141.97;35.85;47386.47;4956125;28;20169;-86
2023/10/01 10:03:11;;;;;;;12.23;8.07;;;;;;;-141.97;35.69;47380.69;4956638;28;20168;-87
2023/10/01 10:05:39;;;;;;;9.53;8.00;;;;;;;-141.97;35.59;47294.22;4956848;28;20157;-85
2023/10/01 10:08:15;;;;;;;13.10;8.20;;;;;;;-141.97;35.34;47396.06;4956756;28;20510;-84
2023/10/01 10:10:48;;;;;;;13.07;7.80;;;;;;;-141.97;35.23;47301.91;4957045;28;20217;-85
2023/10/01 10:19:31;;;;;;;12.60;7.70;;;;;;;-141.97;34.71;47436.44;4958513;29;20171;-86
2023/10/01 10:24:32;;;;;;;14.07;8.32;;;;;;;-141.97;33.54;47371.09;4996322;28;20185;-83
2023/10/01 10:27:09;;;;;;;13.15;7.90;;;;;;;-141.97;32.06;47357.63;4973831;28;20433;-84
2023/10/01 10:29:46;;;;;;;9.45;7.60;;;;;;;-141.97;31.88;47346.09;4979378;28;20225;-87
2023/10/01 10:32:13;;;;;;;11.63;7.65;;;;;;;-141.97;31.61;47553.69;4975833;28;20183;-87
2023/10/01 10:35:03;;;;;;;8.23;7.10;;;;;;;-141.97;31.77;47340.34;4958667;28;20171;-86
2023/10/01 10:37:34;;;;;;;11.95;6.90;;;;;;;-141.97;31.96;47361.47;4958245;28;20203;-88
2023/10/01 10:40:12;;;;;;;11.95;7.90;;;;;;;-141.97;32.25;47338.41;4975528;28;20544;-87
2023/10/01 10:43:07;;;;;;;11.50;7.57;;;;;;;-141.97;32.39;47315.34;4974362;28;20167;-87
2023/10/01 10:48:08;;;;;;;10.45;7.22;;;;;;;-141.97;31.98;47080.88;4916500;29;20593;-85
2023/10/01 10:50:53;;;;;;;10.93;7.53;;;;;;;-141.97;32.22;47346.09;4900350;29;20261;-86
2023/10/01 10:53:39;;;;;;;10.93;7.18;;;;;;;-141.97;32.45;47238.47;4902914;29;20225;-87
2023/10/01 10:56:07;;;;;;;11.02;7.60;;;;;;;-141.97;32.57;47371.09;4928493;29;20385;-85
2023/10/01 10:58:46;;;;;;;8.57;7.68;;;;;;;-141.97;32.71;47371.09;4925615;29;20631;-87
2023/10/01 11:01:18;;;;;;;12.65;7.78;;;;;;;-141.97;33.01;47592.13;4916480;29;20175;-86
2023/10/01 11:03:56;;;;;;;10.68;7.18;;;;;;;-141.97;33.17;47486.41;4915863;29;20672;-87
2023/10/01 11:06:23;;;;;;;9.25;7.30;;;;;;;-141.97;33.29;47430.66;4916234;29;20176;-88
2023/10/01 11:08:51;;;;;;;11.23;7.88;;;;;;;-141.97;33.52;47353.78;4914664;29;20238;-88
2023/10/01 11:11:24;;;;;;;12.30;8.02;;;;;;;-141.97;33.08;47338.41;4915269;29;20190;-88
2023/10/01 11:14:00;;;;;;;13.38;8.15;;;;;;;-141.97;32.29;47532.53;4916284;29;20173;-88
2023/10/01 11:16:34;;;;;;;8.30;7.43;;;;;;;-141.97;31.33;47344.19;4898859;29;20283;-87
2023/10/01 11:19:12;;;;;;;10.02;7.53;;;;;;;-141.97;31.80;47225.03;4914325;29;20202;-87
2023/10/01 11:21:55;;;;;;;11.05;7.50;;;;;;;-141.97;31.81;47551.75;4924466;29;20657;-88
2023/10/01 11:24:31;;;;;;;9.07;7.45;;;;;;;-141.97;31.73;47317.28;4955514;28;20541;-88
2023/10/01 11:27:20;;;;;;;11.75;7.55;;;;;;;-141.97;31.29;47355.72;4954394;28;20157;-87
2023/10/01 11:30:17;;;;;;;8.93;7.18;;;;;;;-141.97;31.24;47597.88;4954184;28;20180;-87
2023/10/01 11:35:37;;;;;;;8.60;7.03;;;;;;;-141.97;31.31;47296.13;4952232;29;20339;-87
2023/10/01 11:38:14;;;;;;;10.00;7.50;;;;;;;-141.97;31.30;47338.41;4951927;29;20222;-88
2023/10/01 11:43:27;;;;;;;9.90;7.15;;;;;;;-141.97;30.40;47326.88;4952478;29;20254;-90
2023/10/01 11:46:20;;;;;;;12.02;7.55;;;;;;;-141.97;30.51;47319.19;4952537;29;20196;-89
2023/10/01 11:48:59;;;;;;;12.27;7.88;;;;;;;-141.97;29.88;47326.88;4937041;29;20683;-89
2023/10/01 11:51:50;;;;;;;10.60;8.13;;;;;;;-141.97;29.50;47321.13;4952132;29;20172;-88
2023/10/01 11:54:17;;;;;;;8.68;7.38;;;;;;;-141.97;28.93;47376.84;4949239;29;20284;-89
2023/10/01 11:57:05;;;;;;;11.07;7.45;;;;;;;-141.97;28.67;47269.22;4933464;29;20711;-88
2023/10/01 11:59:32;;;;;;;10.57;7.75;;;;;;;-141.97;28.65;47223.09;4932787;29;20297;-89
2023/10/01 12:02:18;;;;;;;9.55;7.90;;;;;;;-141.97;28.49;47273.06;4933110;29;20190;-88
2023/10/01 12:04:43;;;;;;;9.10;8.13;;;;;;;-141.97;28.92;47515.22;4933911;29;20192;-89
2023/10/01 12:07:16;;;;;;;9.07;7.40;;;;;;;-141.97;29.05;47276.91;4934112;29;20200;-90
2023/10/01 12:09:50;;;;;;;13.45;9.45;;;;;;;-141.97;28.41;47238.47;4933382;29;20187;-89
2023/10/01 12:12:27;;;;;;;13.20;8.32;;;;;;;-141.97;28.19;47503.69;4941079;29;20199;-88
2023/10/01 12:14:54;;;;;;;10.25;7.18;;;;;;;-141.97;28.35;47230.78;4954217;28;20596;-88
2023/10/01 12:17:23;;;;;;;8.70;7.38;;;;;;;-141.97;28.07;47303.81;4968561;28;20289;-88
2023/10/01 12:20:03;;;;;;;12.82;7.43;;;;;;;-141.97;28.14;47294.22;4968857;28;20231;-88
2023/10/01 12:22:29;;;;;;;12.90;7.53;;;;;;;-141.97;27.74;47207.72;4968835;28;20579;-88
2023/10/01 12:24:57;;;;;;;9.95;7.22;;;;;;;-141.97;28.16;47311.50;4953331;28;20638;-88
2023/10/01 12:27:43;;;;;;;10.80;7.97;;;;;;;-141.97;28.06;47292.28;4953031;29;20167;-89
2023/10/01 12:30:29;;;;;;;10.80;7.60;;;;;;;-141.97;28.43;47288.44;4963871;28;20226;-87
2023/10/01 12:32:56;;;;;;;9.20;7.72;;;;;;;-141.97;28.75;47232.72;4978790;28;20652;-88